<?xml version="1.0" encoding="UTF-8" standalone="no" ?>
<gpx xmlns="http://www.topografix.com/GPX/1/1" xmlns:xsi="http://www.w3.org/2001/XMLSchema-instance" xsi:schemaLocation="http://www.topografix.com/GPX/1/1 http://www.topografix.com/GPX/1/1/gpx.xsd" version="1.1" creator="VisuGPX - https://www.visugpx.com">
  <metadata>
    <name> Penamacor </name>
  </metadata>
  <trk>
    <name><![CDATA[ Penamacor _1]]></name>
    <trkseg>
      <trkpt lat="40.24966" lon="-7.08275">
        <ele>673.6</ele>
      </trkpt>
    </trkseg>
  </trk>
  <trk>
    <name><![CDATA[PR1PNC - Penamacor on GPSies.com]]></name>
    <extensions>
      <line xmlns="http://www.topografix.com/GPX/gpx_style/0/2">
        <color>00FF00</color>
        <width>4</width>
      </line>
    </extensions>
    <trkseg>
      <trkpt lat="40.16672" lon="-7.17059">
        <ele>560</ele>
        <time>2010-01-01T00:00:00Z</time>
      </trkpt>
      <trkpt lat="40.16677" lon="-7.17069">
        <ele>559</ele>
        <time>2010-01-01T00:00:03Z</time>
      </trkpt>
      <trkpt lat="40.16673" lon="-7.17077">
        <ele>557</ele>
        <time>2010-01-01T00:00:06Z</time>
      </trkpt>
      <trkpt lat="40.16677" lon="-7.17088">
        <ele>556</ele>
        <time>2010-01-01T00:00:10Z</time>
      </trkpt>
      <trkpt lat="40.16681" lon="-7.17095">
        <ele>555</ele>
        <time>2010-01-01T00:00:12Z</time>
      </trkpt>
      <trkpt lat="40.16687" lon="-7.17104">
        <ele>554</ele>
        <time>2010-01-01T00:00:16Z</time>
      </trkpt>
      <trkpt lat="40.16696" lon="-7.17114">
        <ele>553</ele>
        <time>2010-01-01T00:00:21Z</time>
      </trkpt>
      <trkpt lat="40.16707" lon="-7.17128">
        <ele>551</ele>
        <time>2010-01-01T00:00:27Z</time>
      </trkpt>
      <trkpt lat="40.16719" lon="-7.17141">
        <ele>550</ele>
        <time>2010-01-01T00:00:33Z</time>
      </trkpt>
      <trkpt lat="40.16727" lon="-7.17142">
        <ele>551</ele>
        <time>2010-01-01T00:00:36Z</time>
      </trkpt>
      <trkpt lat="40.16735" lon="-7.17143">
        <ele>552</ele>
        <time>2010-01-01T00:00:40Z</time>
      </trkpt>
      <trkpt lat="40.16743" lon="-7.17143">
        <ele>553</ele>
        <time>2010-01-01T00:00:43Z</time>
      </trkpt>
      <trkpt lat="40.16746" lon="-7.17136">
        <ele>554</ele>
        <time>2010-01-01T00:00:45Z</time>
      </trkpt>
      <trkpt lat="40.16749" lon="-7.17133">
        <ele>556</ele>
        <time>2010-01-01T00:00:47Z</time>
      </trkpt>
      <trkpt lat="40.16754" lon="-7.17132">
        <ele>557</ele>
        <time>2010-01-01T00:00:49Z</time>
      </trkpt>
      <trkpt lat="40.16758" lon="-7.17146">
        <ele>555</ele>
        <time>2010-01-01T00:00:53Z</time>
      </trkpt>
      <trkpt lat="40.16764" lon="-7.17155">
        <ele>555</ele>
        <time>2010-01-01T00:00:57Z</time>
      </trkpt>
      <trkpt lat="40.16775" lon="-7.17168">
        <ele>556</ele>
        <time>2010-01-01T00:01:03Z</time>
      </trkpt>
      <trkpt lat="40.16781" lon="-7.17175">
        <ele>557</ele>
        <time>2010-01-01T00:01:06Z</time>
      </trkpt>
      <trkpt lat="40.16786" lon="-7.17182">
        <ele>558</ele>
        <time>2010-01-01T00:01:09Z</time>
      </trkpt>
      <trkpt lat="40.16795" lon="-7.17185">
        <ele>560</ele>
        <time>2010-01-01T00:01:13Z</time>
      </trkpt>
      <trkpt lat="40.16807" lon="-7.1719">
        <ele>563</ele>
        <time>2010-01-01T00:01:17Z</time>
      </trkpt>
      <trkpt lat="40.16815" lon="-7.17201">
        <ele>565</ele>
        <time>2010-01-01T00:01:22Z</time>
      </trkpt>
      <trkpt lat="40.16816" lon="-7.17212">
        <ele>565</ele>
        <time>2010-01-01T00:01:26Z</time>
      </trkpt>
      <trkpt lat="40.16818" lon="-7.17232">
        <ele>565</ele>
        <time>2010-01-01T00:01:32Z</time>
      </trkpt>
      <trkpt lat="40.16821" lon="-7.17255">
        <ele>566</ele>
        <time>2010-01-01T00:01:39Z</time>
      </trkpt>
      <trkpt lat="40.16826" lon="-7.17275">
        <ele>567</ele>
        <time>2010-01-01T00:01:45Z</time>
      </trkpt>
      <trkpt lat="40.16829" lon="-7.17294">
        <ele>568</ele>
        <time>2010-01-01T00:01:51Z</time>
      </trkpt>
      <trkpt lat="40.16834" lon="-7.1731">
        <ele>570</ele>
        <time>2010-01-01T00:01:56Z</time>
      </trkpt>
      <trkpt lat="40.16835" lon="-7.17331">
        <ele>572</ele>
        <time>2010-01-01T00:02:03Z</time>
      </trkpt>
      <trkpt lat="40.16838" lon="-7.17354">
        <ele>573</ele>
        <time>2010-01-01T00:02:10Z</time>
      </trkpt>
      <trkpt lat="40.16846" lon="-7.17378">
        <ele>575</ele>
        <time>2010-01-01T00:02:18Z</time>
      </trkpt>
      <trkpt lat="40.16853" lon="-7.17395">
        <ele>575</ele>
        <time>2010-01-01T00:02:24Z</time>
      </trkpt>
      <trkpt lat="40.16864" lon="-7.17418">
        <ele>576</ele>
        <time>2010-01-01T00:02:32Z</time>
      </trkpt>
      <trkpt lat="40.16875" lon="-7.17444">
        <ele>575</ele>
        <time>2010-01-01T00:02:41Z</time>
      </trkpt>
      <trkpt lat="40.16881" lon="-7.17473">
        <ele>577</ele>
        <time>2010-01-01T00:02:50Z</time>
      </trkpt>
      <trkpt lat="40.16891" lon="-7.17483">
        <ele>581</ele>
        <time>2010-01-01T00:02:55Z</time>
      </trkpt>
      <trkpt lat="40.1691" lon="-7.17468">
        <ele>584</ele>
        <time>2010-01-01T00:03:04Z</time>
      </trkpt>
      <trkpt lat="40.16935" lon="-7.1744">
        <ele>591</ele>
        <time>2010-01-01T00:03:17Z</time>
      </trkpt>
      <trkpt lat="40.16947" lon="-7.17433">
        <ele>594</ele>
        <time>2010-01-01T00:03:22Z</time>
      </trkpt>
      <trkpt lat="40.1695" lon="-7.17441">
        <ele>595</ele>
        <time>2010-01-01T00:03:25Z</time>
      </trkpt>
      <trkpt lat="40.16951" lon="-7.17477">
        <ele>597</ele>
        <time>2010-01-01T00:03:36Z</time>
      </trkpt>
      <trkpt lat="40.16946" lon="-7.17511">
        <ele>597</ele>
        <time>2010-01-01T00:03:47Z</time>
      </trkpt>
      <trkpt lat="40.16948" lon="-7.17546">
        <ele>599</ele>
        <time>2010-01-01T00:03:58Z</time>
      </trkpt>
      <trkpt lat="40.16956" lon="-7.1758">
        <ele>600</ele>
        <time>2010-01-01T00:04:08Z</time>
      </trkpt>
      <trkpt lat="40.1696" lon="-7.17619">
        <ele>599</ele>
        <time>2010-01-01T00:04:20Z</time>
      </trkpt>
      <trkpt lat="40.16972" lon="-7.17649">
        <ele>600</ele>
        <time>2010-01-01T00:04:31Z</time>
      </trkpt>
      <trkpt lat="40.16994" lon="-7.17657">
        <ele>602</ele>
        <time>2010-01-01T00:04:40Z</time>
      </trkpt>
      <trkpt lat="40.1702" lon="-7.17662">
        <ele>603</ele>
        <time>2010-01-01T00:04:50Z</time>
      </trkpt>
      <trkpt lat="40.17047" lon="-7.17665">
        <ele>603</ele>
        <time>2010-01-01T00:05:01Z</time>
      </trkpt>
      <trkpt lat="40.17058" lon="-7.17678">
        <ele>602</ele>
        <time>2010-01-01T00:05:07Z</time>
      </trkpt>
      <trkpt lat="40.17064" lon="-7.17728">
        <ele>602</ele>
        <time>2010-01-01T00:05:23Z</time>
      </trkpt>
      <trkpt lat="40.17064" lon="-7.17781">
        <ele>603</ele>
        <time>2010-01-01T00:05:39Z</time>
      </trkpt>
      <trkpt lat="40.17064" lon="-7.17814">
        <ele>604</ele>
        <time>2010-01-01T00:05:49Z</time>
      </trkpt>
      <trkpt lat="40.17055" lon="-7.17837">
        <ele>605</ele>
        <time>2010-01-01T00:05:57Z</time>
      </trkpt>
      <trkpt lat="40.17033" lon="-7.17905">
        <ele>608</ele>
        <time>2010-01-01T00:06:20Z</time>
      </trkpt>
      <trkpt lat="40.17012" lon="-7.17983">
        <ele>611</ele>
        <time>2010-01-01T00:06:45Z</time>
      </trkpt>
      <trkpt lat="40.16994" lon="-7.18043">
        <ele>612</ele>
        <time>2010-01-01T00:07:04Z</time>
      </trkpt>
      <trkpt lat="40.16983" lon="-7.18086">
        <ele>609</ele>
        <time>2010-01-01T00:07:18Z</time>
      </trkpt>
      <trkpt lat="40.16951" lon="-7.18113">
        <ele>607</ele>
        <time>2010-01-01T00:07:34Z</time>
      </trkpt>
      <trkpt lat="40.16903" lon="-7.1815">
        <ele>603</ele>
        <time>2010-01-01T00:07:56Z</time>
      </trkpt>
      <trkpt lat="40.16886" lon="-7.18167">
        <ele>604</ele>
        <time>2010-01-01T00:08:04Z</time>
      </trkpt>
      <trkpt lat="40.16886" lon="-7.18206">
        <ele>607</ele>
        <time>2010-01-01T00:08:16Z</time>
      </trkpt>
      <trkpt lat="40.16886" lon="-7.18209">
        <ele>607</ele>
        <time>2010-01-01T00:08:17Z</time>
      </trkpt>
      <trkpt lat="40.16884" lon="-7.18263">
        <ele>608</ele>
        <time>2010-01-01T00:08:34Z</time>
      </trkpt>
      <trkpt lat="40.1687" lon="-7.18308">
        <ele>607</ele>
        <time>2010-01-01T00:08:49Z</time>
      </trkpt>
      <trkpt lat="40.16844" lon="-7.18346">
        <ele>608</ele>
        <time>2010-01-01T00:09:04Z</time>
      </trkpt>
      <trkpt lat="40.16816" lon="-7.18379">
        <ele>606</ele>
        <time>2010-01-01T00:09:19Z</time>
      </trkpt>
      <trkpt lat="40.16804" lon="-7.184">
        <ele>605</ele>
        <time>2010-01-01T00:09:27Z</time>
      </trkpt>
      <trkpt lat="40.16793" lon="-7.18468">
        <ele>596</ele>
        <time>2010-01-01T00:09:49Z</time>
      </trkpt>
      <trkpt lat="40.16786" lon="-7.18529">
        <ele>590</ele>
        <time>2010-01-01T00:10:08Z</time>
      </trkpt>
      <trkpt lat="40.16775" lon="-7.18589">
        <ele>587</ele>
        <time>2010-01-01T00:10:26Z</time>
      </trkpt>
      <trkpt lat="40.16765" lon="-7.18632">
        <ele>587</ele>
        <time>2010-01-01T00:10:40Z</time>
      </trkpt>
      <trkpt lat="40.16747" lon="-7.18706">
        <ele>583</ele>
        <time>2010-01-01T00:11:04Z</time>
      </trkpt>
      <trkpt lat="40.16726" lon="-7.18751">
        <ele>580</ele>
        <time>2010-01-01T00:11:20Z</time>
      </trkpt>
      <trkpt lat="40.16704" lon="-7.18803">
        <ele>578</ele>
        <time>2010-01-01T00:11:38Z</time>
      </trkpt>
      <trkpt lat="40.16681" lon="-7.18845">
        <ele>577</ele>
        <time>2010-01-01T00:11:54Z</time>
      </trkpt>
      <trkpt lat="40.1666" lon="-7.18897">
        <ele>574</ele>
        <time>2010-01-01T00:12:12Z</time>
      </trkpt>
      <trkpt lat="40.16644" lon="-7.18943">
        <ele>571</ele>
        <time>2010-01-01T00:12:28Z</time>
      </trkpt>
      <trkpt lat="40.16619" lon="-7.18982">
        <ele>565</ele>
        <time>2010-01-01T00:12:43Z</time>
      </trkpt>
      <trkpt lat="40.16591" lon="-7.19039">
        <ele>559</ele>
        <time>2010-01-01T00:13:04Z</time>
      </trkpt>
      <trkpt lat="40.16568" lon="-7.19091">
        <ele>554</ele>
        <time>2010-01-01T00:13:22Z</time>
      </trkpt>
      <trkpt lat="40.16555" lon="-7.19134">
        <ele>552</ele>
        <time>2010-01-01T00:13:36Z</time>
      </trkpt>
      <trkpt lat="40.16574" lon="-7.19066">
        <ele>556</ele>
        <time>2010-01-01T00:13:58Z</time>
      </trkpt>
      <trkpt lat="40.16605" lon="-7.19001">
        <ele>563</ele>
        <time>2010-01-01T00:14:22Z</time>
      </trkpt>
      <trkpt lat="40.16634" lon="-7.18948">
        <ele>570</ele>
        <time>2010-01-01T00:14:42Z</time>
      </trkpt>
      <trkpt lat="40.16652" lon="-7.18912">
        <ele>572</ele>
        <time>2010-01-01T00:14:55Z</time>
      </trkpt>
      <trkpt lat="40.16673" lon="-7.18852">
        <ele>577</ele>
        <time>2010-01-01T00:15:15Z</time>
      </trkpt>
      <trkpt lat="40.16696" lon="-7.18809">
        <ele>579</ele>
        <time>2010-01-01T00:15:31Z</time>
      </trkpt>
      <trkpt lat="40.16716" lon="-7.18764">
        <ele>580</ele>
        <time>2010-01-01T00:15:47Z</time>
      </trkpt>
      <trkpt lat="40.16739" lon="-7.1871">
        <ele>583</ele>
        <time>2010-01-01T00:16:06Z</time>
      </trkpt>
      <trkpt lat="40.16757" lon="-7.18702">
        <ele>582</ele>
        <time>2010-01-01T00:16:13Z</time>
      </trkpt>
      <trkpt lat="40.16766" lon="-7.1873">
        <ele>577</ele>
        <time>2010-01-01T00:16:22Z</time>
      </trkpt>
      <trkpt lat="40.16803" lon="-7.18776">
        <ele>568</ele>
        <time>2010-01-01T00:16:43Z</time>
      </trkpt>
      <trkpt lat="40.16824" lon="-7.18795">
        <ele>561</ele>
        <time>2010-01-01T00:16:53Z</time>
      </trkpt>
      <trkpt lat="40.16838" lon="-7.18825">
        <ele>554</ele>
        <time>2010-01-01T00:17:04Z</time>
      </trkpt>
      <trkpt lat="40.16852" lon="-7.18873">
        <ele>546</ele>
        <time>2010-01-01T00:17:20Z</time>
      </trkpt>
      <trkpt lat="40.16856" lon="-7.18893">
        <ele>543</ele>
        <time>2010-01-01T00:17:26Z</time>
      </trkpt>
      <trkpt lat="40.16849" lon="-7.18949">
        <ele>534</ele>
        <time>2010-01-01T00:17:43Z</time>
      </trkpt>
      <trkpt lat="40.16844" lon="-7.19">
        <ele>522</ele>
        <time>2010-01-01T00:17:59Z</time>
      </trkpt>
      <trkpt lat="40.16851" lon="-7.19039">
        <ele>515</ele>
        <time>2010-01-01T00:18:11Z</time>
      </trkpt>
      <trkpt lat="40.16864" lon="-7.19054">
        <ele>512</ele>
        <time>2010-01-01T00:18:18Z</time>
      </trkpt>
      <trkpt lat="40.1687" lon="-7.19114">
        <ele>501</ele>
        <time>2010-01-01T00:18:37Z</time>
      </trkpt>
      <trkpt lat="40.16876" lon="-7.1917">
        <ele>491</ele>
        <time>2010-01-01T00:18:54Z</time>
      </trkpt>
      <trkpt lat="40.16874" lon="-7.19237">
        <ele>483</ele>
        <time>2010-01-01T00:19:14Z</time>
      </trkpt>
      <trkpt lat="40.16862" lon="-7.19296">
        <ele>479</ele>
        <time>2010-01-01T00:19:33Z</time>
      </trkpt>
      <trkpt lat="40.1685" lon="-7.19349">
        <ele>472</ele>
        <time>2010-01-01T00:19:50Z</time>
      </trkpt>
      <trkpt lat="40.16846" lon="-7.19409">
        <ele>463</ele>
        <time>2010-01-01T00:20:08Z</time>
      </trkpt>
      <trkpt lat="40.16852" lon="-7.19442">
        <ele>458</ele>
        <time>2010-01-01T00:20:19Z</time>
      </trkpt>
      <trkpt lat="40.16883" lon="-7.19488">
        <ele>449</ele>
        <time>2010-01-01T00:20:38Z</time>
      </trkpt>
      <trkpt lat="40.16914" lon="-7.19521">
        <ele>439</ele>
        <time>2010-01-01T00:20:54Z</time>
      </trkpt>
      <trkpt lat="40.16951" lon="-7.19556">
        <ele>435</ele>
        <time>2010-01-01T00:21:12Z</time>
      </trkpt>
      <trkpt lat="40.1697" lon="-7.19585">
        <ele>433</ele>
        <time>2010-01-01T00:21:23Z</time>
      </trkpt>
      <trkpt lat="40.16999" lon="-7.19589">
        <ele>433</ele>
        <time>2010-01-01T00:21:35Z</time>
      </trkpt>
      <trkpt lat="40.1702" lon="-7.19563">
        <ele>434</ele>
        <time>2010-01-01T00:21:47Z</time>
      </trkpt>
      <trkpt lat="40.17047" lon="-7.19523">
        <ele>434</ele>
        <time>2010-01-01T00:22:03Z</time>
      </trkpt>
      <trkpt lat="40.17072" lon="-7.19499">
        <ele>435</ele>
        <time>2010-01-01T00:22:16Z</time>
      </trkpt>
      <trkpt lat="40.17104" lon="-7.19487">
        <ele>435</ele>
        <time>2010-01-01T00:22:29Z</time>
      </trkpt>
      <trkpt lat="40.17131" lon="-7.19466">
        <ele>435</ele>
        <time>2010-01-01T00:22:41Z</time>
      </trkpt>
      <trkpt lat="40.17174" lon="-7.19424">
        <ele>439</ele>
        <time>2010-01-01T00:23:03Z</time>
      </trkpt>
      <trkpt lat="40.17212" lon="-7.19412">
        <ele>438</ele>
        <time>2010-01-01T00:23:18Z</time>
      </trkpt>
      <trkpt lat="40.17246" lon="-7.19392">
        <ele>438</ele>
        <time>2010-01-01T00:23:33Z</time>
      </trkpt>
      <trkpt lat="40.17274" lon="-7.19365">
        <ele>439</ele>
        <time>2010-01-01T00:23:47Z</time>
      </trkpt>
      <trkpt lat="40.17315" lon="-7.19326">
        <ele>438</ele>
        <time>2010-01-01T00:24:08Z</time>
      </trkpt>
      <trkpt lat="40.17342" lon="-7.19265">
        <ele>440</ele>
        <time>2010-01-01T00:24:29Z</time>
      </trkpt>
      <trkpt lat="40.17379" lon="-7.19203">
        <ele>442</ele>
        <time>2010-01-01T00:24:53Z</time>
      </trkpt>
      <trkpt lat="40.17393" lon="-7.19128">
        <ele>446</ele>
        <time>2010-01-01T00:25:17Z</time>
      </trkpt>
      <trkpt lat="40.17434" lon="-7.19084">
        <ele>445</ele>
        <time>2010-01-01T00:25:38Z</time>
      </trkpt>
      <trkpt lat="40.17452" lon="-7.18978">
        <ele>448</ele>
        <time>2010-01-01T00:26:11Z</time>
      </trkpt>
      <trkpt lat="40.17469" lon="-7.18879">
        <ele>451</ele>
        <time>2010-01-01T00:26:42Z</time>
      </trkpt>
      <trkpt lat="40.17466" lon="-7.18777">
        <ele>462</ele>
        <time>2010-01-01T00:27:13Z</time>
      </trkpt>
      <trkpt lat="40.17458" lon="-7.18735">
        <ele>464</ele>
        <time>2010-01-01T00:27:27Z</time>
      </trkpt>
      <trkpt lat="40.17458" lon="-7.18713">
        <ele>464</ele>
        <time>2010-01-01T00:27:33Z</time>
      </trkpt>
      <trkpt lat="40.17491" lon="-7.18725">
        <ele>460</ele>
        <time>2010-01-01T00:27:47Z</time>
      </trkpt>
      <trkpt lat="40.17538" lon="-7.18754">
        <ele>458</ele>
        <time>2010-01-01T00:28:08Z</time>
      </trkpt>
      <trkpt lat="40.17605" lon="-7.18788">
        <ele>451</ele>
        <time>2010-01-01T00:28:37Z</time>
      </trkpt>
      <trkpt lat="40.17661" lon="-7.18811">
        <ele>448</ele>
        <time>2010-01-01T00:29:00Z</time>
      </trkpt>
      <trkpt lat="40.17711" lon="-7.18814">
        <ele>446</ele>
        <time>2010-01-01T00:29:20Z</time>
      </trkpt>
      <trkpt lat="40.1777" lon="-7.18814">
        <ele>444</ele>
        <time>2010-01-01T00:29:44Z</time>
      </trkpt>
      <trkpt lat="40.17802" lon="-7.18828">
        <ele>444</ele>
        <time>2010-01-01T00:29:57Z</time>
      </trkpt>
      <trkpt lat="40.17819" lon="-7.18838">
        <ele>444</ele>
        <time>2010-01-01T00:30:05Z</time>
      </trkpt>
      <trkpt lat="40.17812" lon="-7.18884">
        <ele>444</ele>
        <time>2010-01-01T00:30:19Z</time>
      </trkpt>
      <trkpt lat="40.17812" lon="-7.18954">
        <ele>446</ele>
        <time>2010-01-01T00:30:40Z</time>
      </trkpt>
      <trkpt lat="40.17812" lon="-7.19001">
        <ele>446</ele>
        <time>2010-01-01T00:30:55Z</time>
      </trkpt>
      <trkpt lat="40.17811" lon="-7.19067">
        <ele>448</ele>
        <time>2010-01-01T00:31:15Z</time>
      </trkpt>
      <trkpt lat="40.17811" lon="-7.19072">
        <ele>448</ele>
        <time>2010-01-01T00:31:16Z</time>
      </trkpt>
      <trkpt lat="40.17812" lon="-7.19136">
        <ele>448</ele>
        <time>2010-01-01T00:31:36Z</time>
      </trkpt>
      <trkpt lat="40.17827" lon="-7.19208">
        <ele>453</ele>
        <time>2010-01-01T00:31:59Z</time>
      </trkpt>
      <trkpt lat="40.17833" lon="-7.19249">
        <ele>453</ele>
        <time>2010-01-01T00:32:11Z</time>
      </trkpt>
      <trkpt lat="40.17871" lon="-7.1926">
        <ele>455</ele>
        <time>2010-01-01T00:32:27Z</time>
      </trkpt>
      <trkpt lat="40.17911" lon="-7.19253">
        <ele>461</ele>
        <time>2010-01-01T00:32:43Z</time>
      </trkpt>
      <trkpt lat="40.1797" lon="-7.19214">
        <ele>466</ele>
        <time>2010-01-01T00:33:10Z</time>
      </trkpt>
      <trkpt lat="40.18014" lon="-7.19186">
        <ele>470</ele>
        <time>2010-01-01T00:33:29Z</time>
      </trkpt>
      <trkpt lat="40.18071" lon="-7.19145">
        <ele>472</ele>
        <time>2010-01-01T00:33:55Z</time>
      </trkpt>
      <trkpt lat="40.1811" lon="-7.19093">
        <ele>470</ele>
        <time>2010-01-01T00:34:18Z</time>
      </trkpt>
      <trkpt lat="40.18144" lon="-7.19007">
        <ele>468</ele>
        <time>2010-01-01T00:34:47Z</time>
      </trkpt>
      <trkpt lat="40.18158" lon="-7.18965">
        <ele>468</ele>
        <time>2010-01-01T00:35:01Z</time>
      </trkpt>
      <trkpt lat="40.18078" lon="-7.18927">
        <ele>460</ele>
        <time>2010-01-01T00:35:36Z</time>
      </trkpt>
      <trkpt lat="40.18038" lon="-7.18904">
        <ele>455</ele>
        <time>2010-01-01T00:35:53Z</time>
      </trkpt>
      <trkpt lat="40.17988" lon="-7.18882">
        <ele>452</ele>
        <time>2010-01-01T00:36:14Z</time>
      </trkpt>
      <trkpt lat="40.17934" lon="-7.18855">
        <ele>451</ele>
        <time>2010-01-01T00:36:37Z</time>
      </trkpt>
      <trkpt lat="40.17882" lon="-7.18855">
        <ele>449</ele>
        <time>2010-01-01T00:36:58Z</time>
      </trkpt>
      <trkpt lat="40.17837" lon="-7.18843">
        <ele>446</ele>
        <time>2010-01-01T00:37:16Z</time>
      </trkpt>
      <trkpt lat="40.17792" lon="-7.18831">
        <ele>444</ele>
        <time>2010-01-01T00:37:35Z</time>
      </trkpt>
      <trkpt lat="40.17769" lon="-7.18819">
        <ele>444</ele>
        <time>2010-01-01T00:37:45Z</time>
      </trkpt>
      <trkpt lat="40.17737" lon="-7.18819">
        <ele>444</ele>
        <time>2010-01-01T00:37:58Z</time>
      </trkpt>
      <trkpt lat="40.17707" lon="-7.18822">
        <ele>445</ele>
        <time>2010-01-01T00:38:10Z</time>
      </trkpt>
      <trkpt lat="40.17683" lon="-7.18817">
        <ele>447</ele>
        <time>2010-01-01T00:38:19Z</time>
      </trkpt>
      <trkpt lat="40.17643" lon="-7.18806">
        <ele>448</ele>
        <time>2010-01-01T00:38:36Z</time>
      </trkpt>
      <trkpt lat="40.17606" lon="-7.18783">
        <ele>452</ele>
        <time>2010-01-01T00:38:52Z</time>
      </trkpt>
      <trkpt lat="40.17572" lon="-7.18766">
        <ele>455</ele>
        <time>2010-01-01T00:39:06Z</time>
      </trkpt>
      <trkpt lat="40.17551" lon="-7.18755">
        <ele>457</ele>
        <time>2010-01-01T00:39:16Z</time>
      </trkpt>
      <trkpt lat="40.17525" lon="-7.18741">
        <ele>458</ele>
        <time>2010-01-01T00:39:27Z</time>
      </trkpt>
      <trkpt lat="40.17503" lon="-7.18727">
        <ele>459</ele>
        <time>2010-01-01T00:39:37Z</time>
      </trkpt>
      <trkpt lat="40.17471" lon="-7.1872">
        <ele>463</ele>
        <time>2010-01-01T00:39:50Z</time>
      </trkpt>
      <trkpt lat="40.17452" lon="-7.18716">
        <ele>465</ele>
        <time>2010-01-01T00:39:57Z</time>
      </trkpt>
      <trkpt lat="40.17445" lon="-7.18703">
        <ele>465</ele>
        <time>2010-01-01T00:40:02Z</time>
      </trkpt>
      <trkpt lat="40.17432" lon="-7.18677">
        <ele>466</ele>
        <time>2010-01-01T00:40:12Z</time>
      </trkpt>
      <trkpt lat="40.1742" lon="-7.18648">
        <ele>468</ele>
        <time>2010-01-01T00:40:22Z</time>
      </trkpt>
      <trkpt lat="40.17413" lon="-7.18635">
        <ele>469</ele>
        <time>2010-01-01T00:40:27Z</time>
      </trkpt>
      <trkpt lat="40.17409" lon="-7.18622">
        <ele>469</ele>
        <time>2010-01-01T00:40:31Z</time>
      </trkpt>
      <trkpt lat="40.1741" lon="-7.18604">
        <ele>469</ele>
        <time>2010-01-01T00:40:37Z</time>
      </trkpt>
      <trkpt lat="40.1741" lon="-7.18591">
        <ele>470</ele>
        <time>2010-01-01T00:40:40Z</time>
      </trkpt>
      <trkpt lat="40.17411" lon="-7.18566">
        <ele>471</ele>
        <time>2010-01-01T00:40:48Z</time>
      </trkpt>
      <trkpt lat="40.17411" lon="-7.18565">
        <ele>471</ele>
        <time>2010-01-01T00:40:49Z</time>
      </trkpt>
      <trkpt lat="40.17407" lon="-7.1854">
        <ele>472</ele>
        <time>2010-01-01T00:40:56Z</time>
      </trkpt>
      <trkpt lat="40.17401" lon="-7.18516">
        <ele>474</ele>
        <time>2010-01-01T00:41:04Z</time>
      </trkpt>
      <trkpt lat="40.1741" lon="-7.18469">
        <ele>476</ele>
        <time>2010-01-01T00:41:19Z</time>
      </trkpt>
      <trkpt lat="40.17421" lon="-7.18409">
        <ele>482</ele>
        <time>2010-01-01T00:41:38Z</time>
      </trkpt>
      <trkpt lat="40.17422" lon="-7.18347">
        <ele>488</ele>
        <time>2010-01-01T00:41:57Z</time>
      </trkpt>
      <trkpt lat="40.1743" lon="-7.18293">
        <ele>494</ele>
        <time>2010-01-01T00:42:14Z</time>
      </trkpt>
      <trkpt lat="40.17439" lon="-7.18245">
        <ele>498</ele>
        <time>2010-01-01T00:42:29Z</time>
      </trkpt>
      <trkpt lat="40.1743" lon="-7.18205">
        <ele>503</ele>
        <time>2010-01-01T00:42:41Z</time>
      </trkpt>
      <trkpt lat="40.17428" lon="-7.18156">
        <ele>505</ele>
        <time>2010-01-01T00:42:56Z</time>
      </trkpt>
      <trkpt lat="40.1743" lon="-7.18122">
        <ele>502</ele>
        <time>2010-01-01T00:43:07Z</time>
      </trkpt>
      <trkpt lat="40.17411" lon="-7.18086">
        <ele>506</ele>
        <time>2010-01-01T00:43:20Z</time>
      </trkpt>
      <trkpt lat="40.17419" lon="-7.18047">
        <ele>505</ele>
        <time>2010-01-01T00:43:32Z</time>
      </trkpt>
      <trkpt lat="40.17431" lon="-7.18018">
        <ele>506</ele>
        <time>2010-01-01T00:43:42Z</time>
      </trkpt>
      <trkpt lat="40.17452" lon="-7.17987">
        <ele>505</ele>
        <time>2010-01-01T00:43:55Z</time>
      </trkpt>
      <trkpt lat="40.17454" lon="-7.17959">
        <ele>507</ele>
        <time>2010-01-01T00:44:04Z</time>
      </trkpt>
      <trkpt lat="40.17442" lon="-7.17926">
        <ele>510</ele>
        <time>2010-01-01T00:44:15Z</time>
      </trkpt>
      <trkpt lat="40.17432" lon="-7.17904">
        <ele>513</ele>
        <time>2010-01-01T00:44:23Z</time>
      </trkpt>
      <trkpt lat="40.17435" lon="-7.17877">
        <ele>512</ele>
        <time>2010-01-01T00:44:31Z</time>
      </trkpt>
      <trkpt lat="40.17435" lon="-7.17863">
        <ele>512</ele>
        <time>2010-01-01T00:44:36Z</time>
      </trkpt>
      <trkpt lat="40.17429" lon="-7.1785">
        <ele>513</ele>
        <time>2010-01-01T00:44:40Z</time>
      </trkpt>
      <trkpt lat="40.17412" lon="-7.17828">
        <ele>515</ele>
        <time>2010-01-01T00:44:50Z</time>
      </trkpt>
      <trkpt lat="40.174" lon="-7.17817">
        <ele>517</ele>
        <time>2010-01-01T00:44:56Z</time>
      </trkpt>
      <trkpt lat="40.17387" lon="-7.17808">
        <ele>519</ele>
        <time>2010-01-01T00:45:01Z</time>
      </trkpt>
      <trkpt lat="40.17386" lon="-7.17782">
        <ele>520</ele>
        <time>2010-01-01T00:45:09Z</time>
      </trkpt>
      <trkpt lat="40.17392" lon="-7.17759">
        <ele>520</ele>
        <time>2010-01-01T00:45:17Z</time>
      </trkpt>
      <trkpt lat="40.17387" lon="-7.17733">
        <ele>523</ele>
        <time>2010-01-01T00:45:25Z</time>
      </trkpt>
      <trkpt lat="40.1738" lon="-7.17711">
        <ele>526</ele>
        <time>2010-01-01T00:45:32Z</time>
      </trkpt>
      <trkpt lat="40.17379" lon="-7.17686">
        <ele>527</ele>
        <time>2010-01-01T00:45:40Z</time>
      </trkpt>
      <trkpt lat="40.17378" lon="-7.17683">
        <ele>527</ele>
        <time>2010-01-01T00:45:41Z</time>
      </trkpt>
      <trkpt lat="40.17362" lon="-7.17664">
        <ele>530</ele>
        <time>2010-01-01T00:45:50Z</time>
      </trkpt>
      <trkpt lat="40.17345" lon="-7.1765">
        <ele>531</ele>
        <time>2010-01-01T00:45:58Z</time>
      </trkpt>
      <trkpt lat="40.1733" lon="-7.17643">
        <ele>532</ele>
        <time>2010-01-01T00:46:04Z</time>
      </trkpt>
      <trkpt lat="40.17317" lon="-7.17622">
        <ele>530</ele>
        <time>2010-01-01T00:46:12Z</time>
      </trkpt>
      <trkpt lat="40.17324" lon="-7.17598">
        <ele>528</ele>
        <time>2010-01-01T00:46:20Z</time>
      </trkpt>
      <trkpt lat="40.17326" lon="-7.17598">
        <ele>528</ele>
        <time>2010-01-01T00:46:21Z</time>
      </trkpt>
      <trkpt lat="40.17338" lon="-7.17581">
        <ele>526</ele>
        <time>2010-01-01T00:46:28Z</time>
      </trkpt>
      <trkpt lat="40.17346" lon="-7.1756">
        <ele>526</ele>
        <time>2010-01-01T00:46:35Z</time>
      </trkpt>
      <trkpt lat="40.17335" lon="-7.17536">
        <ele>529</ele>
        <time>2010-01-01T00:46:43Z</time>
      </trkpt>
      <trkpt lat="40.17318" lon="-7.17508">
        <ele>534</ele>
        <time>2010-01-01T00:46:55Z</time>
      </trkpt>
      <trkpt lat="40.173" lon="-7.17487">
        <ele>537</ele>
        <time>2010-01-01T00:47:04Z</time>
      </trkpt>
      <trkpt lat="40.17278" lon="-7.17468">
        <ele>539</ele>
        <time>2010-01-01T00:47:15Z</time>
      </trkpt>
      <trkpt lat="40.17269" lon="-7.17449">
        <ele>542</ele>
        <time>2010-01-01T00:47:22Z</time>
      </trkpt>
      <trkpt lat="40.17266" lon="-7.17415">
        <ele>544</ele>
        <time>2010-01-01T00:47:32Z</time>
      </trkpt>
      <trkpt lat="40.17247" lon="-7.17372">
        <ele>552</ele>
        <time>2010-01-01T00:47:47Z</time>
      </trkpt>
      <trkpt lat="40.1724" lon="-7.17343">
        <ele>554</ele>
        <time>2010-01-01T00:47:57Z</time>
      </trkpt>
      <trkpt lat="40.1724" lon="-7.17299">
        <ele>557</ele>
        <time>2010-01-01T00:48:10Z</time>
      </trkpt>
      <trkpt lat="40.17233" lon="-7.17261">
        <ele>557</ele>
        <time>2010-01-01T00:48:22Z</time>
      </trkpt>
      <trkpt lat="40.17225" lon="-7.17246">
        <ele>556</ele>
        <time>2010-01-01T00:48:28Z</time>
      </trkpt>
      <trkpt lat="40.172" lon="-7.17237">
        <ele>556</ele>
        <time>2010-01-01T00:48:38Z</time>
      </trkpt>
      <trkpt lat="40.17168" lon="-7.1723">
        <ele>560</ele>
        <time>2010-01-01T00:48:51Z</time>
      </trkpt>
      <trkpt lat="40.17132" lon="-7.17223">
        <ele>566</ele>
        <time>2010-01-01T00:49:06Z</time>
      </trkpt>
      <trkpt lat="40.1709" lon="-7.17209">
        <ele>570</ele>
        <time>2010-01-01T00:49:23Z</time>
      </trkpt>
      <trkpt lat="40.17059" lon="-7.17191">
        <ele>572</ele>
        <time>2010-01-01T00:49:37Z</time>
      </trkpt>
      <trkpt lat="40.17033" lon="-7.17182">
        <ele>575</ele>
        <time>2010-01-01T00:49:47Z</time>
      </trkpt>
      <trkpt lat="40.17002" lon="-7.17182">
        <ele>579</ele>
        <time>2010-01-01T00:50:00Z</time>
      </trkpt>
      <trkpt lat="40.16975" lon="-7.17168">
        <ele>580</ele>
        <time>2010-01-01T00:50:11Z</time>
      </trkpt>
      <trkpt lat="40.16946" lon="-7.17148">
        <ele>580</ele>
        <time>2010-01-01T00:50:24Z</time>
      </trkpt>
      <trkpt lat="40.16926" lon="-7.17136">
        <ele>579</ele>
        <time>2010-01-01T00:50:33Z</time>
      </trkpt>
      <trkpt lat="40.16902" lon="-7.17123">
        <ele>577</ele>
        <time>2010-01-01T00:50:44Z</time>
      </trkpt>
      <trkpt lat="40.16893" lon="-7.17107">
        <ele>574</ele>
        <time>2010-01-01T00:50:50Z</time>
      </trkpt>
      <trkpt lat="40.1688" lon="-7.17082">
        <ele>572</ele>
        <time>2010-01-01T00:50:59Z</time>
      </trkpt>
      <trkpt lat="40.16865" lon="-7.17041">
        <ele>571</ele>
        <time>2010-01-01T00:51:13Z</time>
      </trkpt>
      <trkpt lat="40.16855" lon="-7.17016">
        <ele>569</ele>
        <time>2010-01-01T00:51:21Z</time>
      </trkpt>
      <trkpt lat="40.16848" lon="-7.16999">
        <ele>568</ele>
        <time>2010-01-01T00:51:27Z</time>
      </trkpt>
      <trkpt lat="40.1684" lon="-7.1698">
        <ele>567</ele>
        <time>2010-01-01T00:51:34Z</time>
      </trkpt>
      <trkpt lat="40.16829" lon="-7.16973">
        <ele>568</ele>
        <time>2010-01-01T00:51:39Z</time>
      </trkpt>
      <trkpt lat="40.16825" lon="-7.16968">
        <ele>568</ele>
        <time>2010-01-01T00:51:41Z</time>
      </trkpt>
      <trkpt lat="40.1683" lon="-7.16958">
        <ele>567</ele>
        <time>2010-01-01T00:51:45Z</time>
      </trkpt>
      <trkpt lat="40.16847" lon="-7.16942">
        <ele>565</ele>
        <time>2010-01-01T00:51:53Z</time>
      </trkpt>
      <trkpt lat="40.1687" lon="-7.16925">
        <ele>561</ele>
        <time>2010-01-01T00:52:04Z</time>
      </trkpt>
      <trkpt lat="40.16891" lon="-7.16907">
        <ele>557</ele>
        <time>2010-01-01T00:52:14Z</time>
      </trkpt>
      <trkpt lat="40.16905" lon="-7.16895">
        <ele>554</ele>
        <time>2010-01-01T00:52:21Z</time>
      </trkpt>
      <trkpt lat="40.16917" lon="-7.1688">
        <ele>551</ele>
        <time>2010-01-01T00:52:27Z</time>
      </trkpt>
      <trkpt lat="40.16906" lon="-7.16864">
        <ele>553</ele>
        <time>2010-01-01T00:52:34Z</time>
      </trkpt>
      <trkpt lat="40.16893" lon="-7.16854">
        <ele>555</ele>
        <time>2010-01-01T00:52:40Z</time>
      </trkpt>
      <trkpt lat="40.16882" lon="-7.16849">
        <ele>557</ele>
        <time>2010-01-01T00:52:45Z</time>
      </trkpt>
      <trkpt lat="40.16885" lon="-7.16839">
        <ele>556</ele>
        <time>2010-01-01T00:52:48Z</time>
      </trkpt>
      <trkpt lat="40.16887" lon="-7.16818">
        <ele>557</ele>
        <time>2010-01-01T00:52:55Z</time>
      </trkpt>
      <trkpt lat="40.16887" lon="-7.16809">
        <ele>558</ele>
        <time>2010-01-01T00:52:57Z</time>
      </trkpt>
      <trkpt lat="40.16879" lon="-7.16803">
        <ele>560</ele>
        <time>2010-01-01T00:53:01Z</time>
      </trkpt>
      <trkpt lat="40.16859" lon="-7.16796">
        <ele>564</ele>
        <time>2010-01-01T00:53:09Z</time>
      </trkpt>
      <trkpt lat="40.16839" lon="-7.16785">
        <ele>570</ele>
        <time>2010-01-01T00:53:18Z</time>
      </trkpt>
      <trkpt lat="40.16827" lon="-7.16807">
        <ele>572</ele>
        <time>2010-01-01T00:53:26Z</time>
      </trkpt>
      <trkpt lat="40.16808" lon="-7.16836">
        <ele>578</ele>
        <time>2010-01-01T00:53:38Z</time>
      </trkpt>
      <trkpt lat="40.16795" lon="-7.16853">
        <ele>581</ele>
        <time>2010-01-01T00:53:45Z</time>
      </trkpt>
      <trkpt lat="40.16789" lon="-7.16832">
        <ele>584</ele>
        <time>2010-01-01T00:53:52Z</time>
      </trkpt>
      <trkpt lat="40.16784" lon="-7.16817">
        <ele>585</ele>
        <time>2010-01-01T00:53:57Z</time>
      </trkpt>
      <trkpt lat="40.16779" lon="-7.16806">
        <ele>586</ele>
        <time>2010-01-01T00:54:01Z</time>
      </trkpt>
      <trkpt lat="40.16779" lon="-7.16804">
        <ele>586</ele>
        <time>2010-01-01T00:54:01Z</time>
      </trkpt>
      <trkpt lat="40.16788" lon="-7.16779">
        <ele>585</ele>
        <time>2010-01-01T00:54:10Z</time>
      </trkpt>
      <trkpt lat="40.1679" lon="-7.16771">
        <ele>585</ele>
        <time>2010-01-01T00:54:13Z</time>
      </trkpt>
      <trkpt lat="40.16778" lon="-7.16767">
        <ele>589</ele>
        <time>2010-01-01T00:54:18Z</time>
      </trkpt>
      <trkpt lat="40.16767" lon="-7.16762">
        <ele>591</ele>
        <time>2010-01-01T00:54:22Z</time>
      </trkpt>
      <trkpt lat="40.16759" lon="-7.16757">
        <ele>593</ele>
        <time>2010-01-01T00:54:26Z</time>
      </trkpt>
      <trkpt lat="40.16755" lon="-7.16745">
        <ele>594</ele>
        <time>2010-01-01T00:54:30Z</time>
      </trkpt>
      <trkpt lat="40.16759" lon="-7.16729">
        <ele>595</ele>
        <time>2010-01-01T00:54:35Z</time>
      </trkpt>
      <trkpt lat="40.1676" lon="-7.16712">
        <ele>596</ele>
        <time>2010-01-01T00:54:40Z</time>
      </trkpt>
      <trkpt lat="40.1676" lon="-7.16693">
        <ele>596</ele>
        <time>2010-01-01T00:54:46Z</time>
      </trkpt>
      <trkpt lat="40.16761" lon="-7.16676">
        <ele>596</ele>
        <time>2010-01-01T00:54:51Z</time>
      </trkpt>
      <trkpt lat="40.16767" lon="-7.16665">
        <ele>596</ele>
        <time>2010-01-01T00:54:55Z</time>
      </trkpt>
      <trkpt lat="40.16779" lon="-7.16656">
        <ele>596</ele>
        <time>2010-01-01T00:55:01Z</time>
      </trkpt>
      <trkpt lat="40.16785" lon="-7.16651">
        <ele>595</ele>
        <time>2010-01-01T00:55:03Z</time>
      </trkpt>
      <trkpt lat="40.16797" lon="-7.16663">
        <ele>594</ele>
        <time>2010-01-01T00:55:10Z</time>
      </trkpt>
      <trkpt lat="40.1681" lon="-7.16667">
        <ele>592</ele>
        <time>2010-01-01T00:55:15Z</time>
      </trkpt>
      <trkpt lat="40.16826" lon="-7.16663">
        <ele>585</ele>
        <time>2010-01-01T00:55:21Z</time>
      </trkpt>
      <trkpt lat="40.1683" lon="-7.16663">
        <ele>584</ele>
        <time>2010-01-01T00:55:23Z</time>
      </trkpt>
      <trkpt lat="40.16833" lon="-7.16644">
        <ele>583</ele>
        <time>2010-01-01T00:55:29Z</time>
      </trkpt>
      <trkpt lat="40.16831" lon="-7.16627">
        <ele>584</ele>
        <time>2010-01-01T00:55:34Z</time>
      </trkpt>
      <trkpt lat="40.16821" lon="-7.16613">
        <ele>586</ele>
        <time>2010-01-01T00:55:41Z</time>
      </trkpt>
      <trkpt lat="40.16813" lon="-7.16599">
        <ele>586</ele>
        <time>2010-01-01T00:55:46Z</time>
      </trkpt>
      <trkpt lat="40.16804" lon="-7.16586">
        <ele>585</ele>
        <time>2010-01-01T00:55:51Z</time>
      </trkpt>
      <trkpt lat="40.16794" lon="-7.16581">
        <ele>585</ele>
        <time>2010-01-01T00:55:55Z</time>
      </trkpt>
      <trkpt lat="40.16788" lon="-7.16577">
        <ele>585</ele>
        <time>2010-01-01T00:55:58Z</time>
      </trkpt>
      <trkpt lat="40.1678" lon="-7.16561">
        <ele>582</ele>
        <time>2010-01-01T00:56:04Z</time>
      </trkpt>
      <trkpt lat="40.16769" lon="-7.16549">
        <ele>582</ele>
        <time>2010-01-01T00:56:10Z</time>
      </trkpt>
      <trkpt lat="40.16758" lon="-7.16536">
        <ele>582</ele>
        <time>2010-01-01T00:56:15Z</time>
      </trkpt>
      <trkpt lat="40.1675" lon="-7.16547">
        <ele>585</ele>
        <time>2010-01-01T00:56:20Z</time>
      </trkpt>
      <trkpt lat="40.16744" lon="-7.16559">
        <ele>588</ele>
        <time>2010-01-01T00:56:25Z</time>
      </trkpt>
      <trkpt lat="40.16737" lon="-7.16571">
        <ele>589</ele>
        <time>2010-01-01T00:56:29Z</time>
      </trkpt>
      <trkpt lat="40.16733" lon="-7.16583">
        <ele>590</ele>
        <time>2010-01-01T00:56:33Z</time>
      </trkpt>
      <trkpt lat="40.16727" lon="-7.16582">
        <ele>590</ele>
        <time>2010-01-01T00:56:35Z</time>
      </trkpt>
      <trkpt lat="40.16722" lon="-7.16574">
        <ele>590</ele>
        <time>2010-01-01T00:56:39Z</time>
      </trkpt>
      <trkpt lat="40.16717" lon="-7.16588">
        <ele>589</ele>
        <time>2010-01-01T00:56:43Z</time>
      </trkpt>
      <trkpt lat="40.1672" lon="-7.16596">
        <ele>590</ele>
        <time>2010-01-01T00:56:46Z</time>
      </trkpt>
      <trkpt lat="40.16713" lon="-7.16613">
        <ele>587</ele>
        <time>2010-01-01T00:56:52Z</time>
      </trkpt>
      <trkpt lat="40.16715" lon="-7.16631">
        <ele>588</ele>
        <time>2010-01-01T00:56:58Z</time>
      </trkpt>
      <trkpt lat="40.16717" lon="-7.16649">
        <ele>588</ele>
        <time>2010-01-01T00:57:03Z</time>
      </trkpt>
      <trkpt lat="40.16713" lon="-7.1667">
        <ele>586</ele>
        <time>2010-01-01T00:57:10Z</time>
      </trkpt>
      <trkpt lat="40.1671" lon="-7.16696">
        <ele>585</ele>
        <time>2010-01-01T00:57:18Z</time>
      </trkpt>
      <trkpt lat="40.16703" lon="-7.16711">
        <ele>584</ele>
        <time>2010-01-01T00:57:23Z</time>
      </trkpt>
      <trkpt lat="40.16698" lon="-7.16706">
        <ele>582</ele>
        <time>2010-01-01T00:57:26Z</time>
      </trkpt>
      <trkpt lat="40.16691" lon="-7.1672">
        <ele>580</ele>
        <time>2010-01-01T00:57:31Z</time>
      </trkpt>
      <trkpt lat="40.16688" lon="-7.16738">
        <ele>580</ele>
        <time>2010-01-01T00:57:37Z</time>
      </trkpt>
      <trkpt lat="40.16686" lon="-7.16752">
        <ele>580</ele>
        <time>2010-01-01T00:57:41Z</time>
      </trkpt>
      <trkpt lat="40.16677" lon="-7.16766">
        <ele>577</ele>
        <time>2010-01-01T00:57:47Z</time>
      </trkpt>
      <trkpt lat="40.16679" lon="-7.16781">
        <ele>579</ele>
        <time>2010-01-01T00:57:51Z</time>
      </trkpt>
      <trkpt lat="40.16682" lon="-7.16793">
        <ele>580</ele>
        <time>2010-01-01T00:57:55Z</time>
      </trkpt>
      <trkpt lat="40.16677" lon="-7.16814">
        <ele>578</ele>
        <time>2010-01-01T00:58:02Z</time>
      </trkpt>
      <trkpt lat="40.16674" lon="-7.16832">
        <ele>577</ele>
        <time>2010-01-01T00:58:08Z</time>
      </trkpt>
      <trkpt lat="40.16665" lon="-7.16844">
        <ele>573</ele>
        <time>2010-01-01T00:58:13Z</time>
      </trkpt>
      <trkpt lat="40.16657" lon="-7.16848">
        <ele>569</ele>
        <time>2010-01-01T00:58:16Z</time>
      </trkpt>
      <trkpt lat="40.16655" lon="-7.16861">
        <ele>568</ele>
        <time>2010-01-01T00:58:20Z</time>
      </trkpt>
      <trkpt lat="40.16646" lon="-7.16867">
        <ele>564</ele>
        <time>2010-01-01T00:58:24Z</time>
      </trkpt>
      <trkpt lat="40.16632" lon="-7.16862">
        <ele>558</ele>
        <time>2010-01-01T00:58:30Z</time>
      </trkpt>
      <trkpt lat="40.16621" lon="-7.16865">
        <ele>553</ele>
        <time>2010-01-01T00:58:35Z</time>
      </trkpt>
      <trkpt lat="40.16613" lon="-7.16871">
        <ele>550</ele>
        <time>2010-01-01T00:58:38Z</time>
      </trkpt>
      <trkpt lat="40.16615" lon="-7.16892">
        <ele>549</ele>
        <time>2010-01-01T00:58:45Z</time>
      </trkpt>
      <trkpt lat="40.16615" lon="-7.16922">
        <ele>545</ele>
        <time>2010-01-01T00:58:54Z</time>
      </trkpt>
      <trkpt lat="40.16617" lon="-7.16969">
        <ele>546</ele>
        <time>2010-01-01T00:59:08Z</time>
      </trkpt>
      <trkpt lat="40.1662" lon="-7.17022">
        <ele>548</ele>
        <time>2010-01-01T00:59:24Z</time>
      </trkpt>
      <trkpt lat="40.16625" lon="-7.17057">
        <ele>552</ele>
        <time>2010-01-01T00:59:36Z</time>
      </trkpt>
      <trkpt lat="40.16633" lon="-7.17098">
        <ele>547</ele>
        <time>2010-01-01T00:59:48Z</time>
      </trkpt>
      <trkpt lat="40.16642" lon="-7.17123">
        <ele>546</ele>
        <time>2010-01-01T00:59:57Z</time>
      </trkpt>
      <trkpt lat="40.16649" lon="-7.1712">
        <ele>547</ele>
        <time>2010-01-01T01:00:00Z</time>
      </trkpt>
      <trkpt lat="40.16657" lon="-7.17112">
        <ele>548</ele>
        <time>2010-01-01T01:00:04Z</time>
      </trkpt>
      <trkpt lat="40.16665" lon="-7.17102">
        <ele>551</ele>
        <time>2010-01-01T01:00:08Z</time>
      </trkpt>
      <trkpt lat="40.16662" lon="-7.17095">
        <ele>552</ele>
        <time>2010-01-01T01:00:10Z</time>
      </trkpt>
      <trkpt lat="40.1666" lon="-7.17091">
        <ele>553</ele>
        <time>2010-01-01T01:00:12Z</time>
      </trkpt>
      <trkpt lat="40.16666" lon="-7.17084">
        <ele>555</ele>
        <time>2010-01-01T01:00:15Z</time>
      </trkpt>
      <trkpt lat="40.16671" lon="-7.17078">
        <ele>557</ele>
        <time>2010-01-01T01:00:18Z</time>
      </trkpt>
      <trkpt lat="40.16673" lon="-7.1707">
        <ele>559</ele>
        <time>2010-01-01T01:00:20Z</time>
      </trkpt>
      <trkpt lat="40.16671" lon="-7.17063">
        <ele>560</ele>
        <time>2010-01-01T01:00:23Z</time>
      </trkpt>
    </trkseg>
  </trk>
</gpx>